This is the latest recevied weather packets stored in our database for station/object I1SXT-13. If no packets are shown the sender has not sent any weather packets the latest 10 day(s).
| Time | Temp. | Humidity | Pressure | Rain* | Wind** | Luminosity | Snow |
|---|---|---|---|---|---|---|---|
| 1777854570 | 11.67° C | 73% | 1019.4 hPa | 0 mm | - | - | - |
| 1777854266 | 11.11° C | 75% | 1019.7 hPa | 0 mm | - | - | - |
| 1777853969 | 11.67° C | 74% | 1019.9 hPa | 0 mm | - | - | - |
| 1777853665 | 12.22° C | 71% | 1019.9 hPa | 0 mm | - | - | - |
| 1777853368 | 13.33° C | 64% | 1018.6 hPa | 0 mm | - | - | - |
| 1777853064 | 13.33° C | 60% | 1019.7 hPa | 0 mm | - | - | - |
| 1777852767 | 13.33° C | 61% | 1019.5 hPa | 0 mm | - | - | - |
| 1777852165 | 12.78° C | 64% | 1019.8 hPa | 0 mm | - | - | - |
| 1777851868 | 12.22° C | 68% | 1019.6 hPa | 0 mm | - | - | - |
| 1777851564 | 12.22° C | 71% | 1019.7 hPa | 0 mm | - | - | - |
| 1777851267 | 12.78° C | 70% | 1019.7 hPa | 0 mm | - | - | - |
| 1777850970 | 12.78° C | 68% | 1019.7 hPa | 0 mm | - | - | - |
| 1777850666 | 12.78° C | 70% | 1019.7 hPa | 0 mm | - | - | - |
| 1777850369 | 12.78° C | 68% | 1019.7 hPa | 0 mm | - | - | - |
| 1777849767 | 13.89° C | 62% | 1019.9 hPa | 0 mm | - | - | - |
| 1777849463 | 13.89° C | 62% | 1020 hPa | 0 mm | - | - | - |
| 1777849166 | 13.89° C | 62% | 1019.8 hPa | 0 mm | - | - | - |
| 1777848869 | 13.33° C | 63% | 1019.9 hPa | 0 mm | - | - | - |
| 1777848565 | 13.33° C | 65% | 1020.6 hPa | 0 mm | - | - | - |
| 1777848268 | 13.33° C | 64% | 1020.1 hPa | 0 mm | - | - | - |
| 1777847964 | 13.33° C | 64% | 1020 hPa | 0 mm | - | - | - |
| 1777847667 | 13.33° C | 65% | 1020.7 hPa | 0 mm | - | - | - |
| 1777847370 | 13.33° C | 65% | 1020.2 hPa | 0 mm | - | - | - |
| 1777847066 | 13.33° C | 66% | 1020.5 hPa | 0 mm | - | - | - |
| 1777846769 | 13.33° C | 66% | 1020.2 hPa | 0 mm | - | - | - |
* Rain since midnight (hover to see other rain measurements)
** Current wind speed in m/s (hover to see current wind gust speed)